PWSweather.com
Personal Weather Stations
Station Observations
HAAPA73
HaapajarviFI 85800

HaapajarviFI 85800

Lat: 63.72155, Lon: 25.34029

Elevation: 88

Station Type: La Crosse WS-3600

http://www.haapajarvi.info

Latest ConditionsUpdated 7:00:00 PM GMT+02:02 Tuesday, Jan 22, 2019
Currently Today's Max Today's Min Today's Average
Temperature 12.1°F-11.1°C 16.7°F-8.5°C 10.2°F-12.1°C 13.6°F-10.2°C
Dew Point -2.6°F-19.2°C 3.3°F-15.9°C -5.6°F-20.9°C -0.8°F-18.2°C
Winds Calm Calm Calm -Calm - - Calm Calm
Wind Gusts -- -- - -
Humidity 51% 55% 48% 52%
Pressure 29.74 in1007.1 mb 29.88 in1011.9 mb 29.74 in1007.1 mb -
Hour Temp Dew Point Humidity Winds Wind Gusts Pressure Precip Precip Rate Daily Precip Total
07:00 PM 12.1°F-11.1°C -2.6°F-19.2°C 51% Calm Calm -- 29.74 in1007.1 mb - 0.00 in0.0 mm 0.00 in0.0 mm
06:00 PM 11.9°F-11.2°C -2.8°F-19.3°C 51% Calm Calm -- 29.76 in1007.8 mb - 0.00 in0.0 mm 0.00 in0.0 mm
05:00 PM 13.2°F-10.4°C -1.6°F-18.7°C 51% Calm Calm -- 29.77 in1008.1 mb - 0.00 in0.0 mm 0.00 in0.0 mm
04:00 PM 14.7°F-9.6°C 0.6°F-17.4°C 53% Calm Calm -- 29.79 in1008.8 mb - 0.00 in0.0 mm 0.00 in0.0 mm
03:00 PM 15.2°F-9.3°C 1.5°F-16.9°C 54% Calm Calm -- 29.80 in1009.1 mb - 0.00 in0.0 mm 0.00 in0.0 mm
02:00 PM 15.2°F-9.3°C 1.5°F-16.9°C 54% Calm Calm -- 29.80 in1009.1 mb - 0.00 in0.0 mm 0.00 in0.0 mm
01:00 PM 15.6°F-9.1°C 1.9°F-16.7°C 54% Calm Calm -- 29.82 in1009.8 mb - 0.00 in0.0 mm 0.00 in0.0 mm
12:00 PM 15.6°F-9.1°C 1.9°F-16.7°C 54% Calm Calm -- 29.82 in1009.8 mb - 0.00 in0.0 mm 0.00 in0.0 mm
11:00 AM 16.7°F-8.5°C 3.3°F-15.9°C 55% Calm Calm -- 29.82 in1009.8 mb - 0.00 in0.0 mm 0.00 in0.0 mm
10:00 AM 15.9°F-8.9°C 2.2°F-16.6°C 54% Calm Calm -- 29.82 in1009.8 mb - 0.00 in0.0 mm 0.00 in0.0 mm
09:00 AM 14.6°F-9.7°C 0.5°F-17.5°C 53% Calm Calm -- 29.82 in1009.8 mb - 0.00 in0.0 mm 0.00 in0.0 mm
08:00 AM 11.1°F-11.6°C -3.9°F-19.9°C 50% Calm Calm -- 29.84 in1010.5 mb - 0.00 in0.0 mm 0.00 in0.0 mm
07:00 AM 10.5°F-11.9°C -4.9°F-20.5°C 49% Calm Calm -- 29.84 in1010.5 mb - 0.00 in0.0 mm 0.00 in0.0 mm
06:00 AM 10.2°F-12.1°C -5.6°F-20.9°C 48% Calm Calm -- 29.84 in1010.5 mb - 0.00 in0.0 mm 0.00 in0.0 mm
05:00 AM 13.5°F-10.3°C -0.9°F-18.3°C 52% Calm Calm -- 29.84 in1010.5 mb - 0.00 in0.0 mm 0.00 in0.0 mm
04:00 AM 13.3°F-10.4°C -1.1°F-18.4°C 52% Calm Calm -- 29.85 in1010.8 mb - 0.00 in0.0 mm 0.00 in0.0 mm
03:00 AM 14.1°F-9.9°C -0.3°F-17.9°C 52% Calm Calm -- 29.86 in1011.2 mb - 0.00 in0.0 mm 0.00 in0.0 mm
02:00 AM 13.8°F-10.1°C -0.6°F-18.1°C 52% Calm Calm -- 29.86 in1011.2 mb - 0.00 in0.0 mm 0.00 in0.0 mm
01:00 AM 12.4°F-10.9°C -2.3°F-19.1°C 51% Calm Calm -- 29.88 in1011.9 mb - 0.00 in0.0 mm 0.00 in0.0 mm
12:00 AM 12.3°F-10.9°C -2.4°F-19.1°C 51% Calm Calm -- 29.88 in1011.9 mb - 0.00 in0.0 mm 0.00 in0.0 mm